sensor_id;sensor_type;location;lat;lon;timestamp;pressure;altitude;pressure_sealevel;temperature;humidity
44138;BME280;29800;55.942;37.314;2022-10-04T00:01:23;98132.59;;;12.13;65.91
44138;BME280;29800;55.942;37.314;2022-10-04T00:04:20;98153.16;;;12.29;66.90
44138;BME280;29800;55.942;37.314;2022-10-04T00:09:24;98137.75;;;12.34;66.49
44138;BME280;29800;55.942;37.314;2022-10-04T00:11:53;98144.81;;;12.21;66.42
44138;BME280;29800;55.942;37.314;2022-10-04T00:14:38;98153.34;;;12.19;67.21
44138;BME280;29800;55.942;37.314;2022-10-04T00:17:12;98155.06;;;12.15;66.95
44138;BME280;29800;55.942;37.314;2022-10-04T00:22:08;98150.13;;;12.31;68.43
44138;BME280;29800;55.942;37.314;2022-10-04T00:24:37;98154.00;;;12.30;67.27
44138;BME280;29800;55.942;37.314;2022-10-04T00:27:25;98134.91;;;12.39;65.89
44138;BME280;29800;55.942;37.314;2022-10-04T00:40:35;98158.00;;;12.19;68.18
44138;BME280;29800;55.942;37.314;2022-10-04T00:43:31;98161.47;;;12.24;67.13
44138;BME280;29800;55.942;37.314;2022-10-04T00:46:11;98160.31;;;12.11;65.97
44138;BME280;29800;55.942;37.314;2022-10-04T00:48:45;98167.13;;;12.14;66.68
44138;BME280;29800;55.942;37.314;2022-10-04T00:51:31;98154.03;;;12.44;66.26
44138;BME280;29800;55.942;37.314;2022-10-04T00:54:15;98153.22;;;12.57;65.53
44138;BME280;29800;55.942;37.314;2022-10-04T00:56:55;98167.28;;;12.69;66.19
44138;BME280;29800;55.942;37.314;2022-10-04T01:01:57;98161.31;;;12.67;65.12
44138;BME280;29800;55.942;37.314;2022-10-04T01:06:57;98175.09;;;12.29;65.17
44138;BME280;29800;55.942;37.314;2022-10-04T01:09:24;98184.69;;;12.13;65.26
44138;BME280;29800;55.942;37.314;2022-10-04T01:12:09;98178.97;;;12.28;66.26
44138;BME280;29800;55.942;37.314;2022-10-04T01:14:54;98183.22;;;12.21;66.63
44138;BME280;29800;55.942;37.314;2022-10-04T01:17:23;98176.75;;;12.30;65.90
44138;BME280;29800;55.942;37.314;2022-10-04T01:19:53;98184.47;;;12.28;65.70
44138;BME280;29800;55.942;37.314;2022-10-04T01:22:40;98205.94;;;12.40;66.06
44138;BME280;29800;55.942;37.314;2022-10-04T01:25:06;98186.16;;;12.24;64.99
44138;BME280;29800;55.942;37.314;2022-10-04T01:27:41;98181.34;;;12.16;65.36
44138;BME280;29800;55.942;37.314;2022-10-04T01:30:15;98172.78;;;12.04;65.35
44138;BME280;29800;55.942;37.314;2022-10-04T01:32:42;98191.06;;;12.08;65.66
44138;BME280;29800;55.942;37.314;2022-10-04T01:35:10;98185.38;;;12.05;64.82
44138;BME280;29800;55.942;37.314;2022-10-04T01:37:37;98191.81;;;11.95;65.50
44138;BME280;29800;55.942;37.314;2022-10-04T01:40:08;98181.94;;;12.13;68.11
44138;BME280;29800;55.942;37.314;2022-10-04T01:42:44;98191.13;;;12.22;66.38
44138;BME280;29800;55.942;37.314;2022-10-04T01:45:44;98196.91;;;12.21;66.09
44138;BME280;29800;55.942;37.314;2022-10-04T01:48:15;98192.31;;;12.16;66.13
44138;BME280;29800;55.942;37.314;2022-10-04T01:50:56;98205.88;;;12.26;66.04
44138;BME280;29800;55.942;37.314;2022-10-04T01:53:29;98197.72;;;12.40;64.94
44138;BME280;29800;55.942;37.314;2022-10-04T01:56:09;98194.50;;;12.52;66.50
44138;BME280;29800;55.942;37.314;2022-10-04T01:58:53;98191.41;;;12.40;64.82
44138;BME280;29800;55.942;37.314;2022-10-04T02:06:29;98186.38;;;12.28;66.31
44138;BME280;29800;55.942;37.314;2022-10-04T02:09:06;98193.47;;;12.15;65.61
44138;BME280;29800;55.942;37.314;2022-10-04T02:11:34;98193.50;;;12.10;65.36
44138;BME280;29800;55.942;37.314;2022-10-04T02:14:03;98192.84;;;12.18;65.53
44138;BME280;29800;55.942;37.314;2022-10-04T02:16:34;98197.50;;;12.37;64.79
44138;BME280;29800;55.942;37.314;2022-10-04T02:19:03;98201.66;;;12.67;66.89
44138;BME280;29800;55.942;37.314;2022-10-04T02:21:29;98193.63;;;12.71;64.83
44138;BME280;29800;55.942;37.314;2022-10-04T02:23:56;98221.94;;;12.52;64.11
44138;BME280;29800;55.942;37.314;2022-10-04T02:26:22;98226.19;;;12.25;64.26
44138;BME280;29800;55.942;37.314;2022-10-04T02:28:48;98217.84;;;11.98;64.91
44138;BME280;29800;55.942;37.314;2022-10-04T02:31:19;98202.94;;;12.04;66.03
44138;BME280;29800;55.942;37.314;2022-10-04T02:34:04;98213.47;;;12.16;66.14
44138;BME280;29800;55.942;37.314;2022-10-04T02:36:30;98219.22;;;11.95;65.73
44138;BME280;29800;55.942;37.314;2022-10-04T02:39:21;98218.13;;;11.96;66.75
44138;BME280;29800;55.942;37.314;2022-10-04T02:42:02;98237.75;;;12.03;65.97
44138;BME280;29800;55.942;37.314;2022-10-04T02:44:50;98228.81;;;11.98;66.23
44138;BME280;29800;55.942;37.314;2022-10-04T02:47:23;98230.06;;;12.24;67.20
44138;BME280;29800;55.942;37.314;2022-10-04T02:50:07;98232.88;;;12.19;66.01
44138;BME280;29800;55.942;37.314;2022-10-04T02:52:43;98228.13;;;12.06;66.00
44138;BME280;29800;55.942;37.314;2022-10-04T02:57:40;98244.06;;;11.61;67.57
44138;BME280;29800;55.942;37.314;2022-10-04T03:05:34;98251.75;;;11.58;67.49
44138;BME280;29800;55.942;37.314;2022-10-04T03:08:03;98244.63;;;11.57;69.34
44138;BME280;29800;55.942;37.314;2022-10-04T03:10:30;98247.16;;;11.54;68.10
44138;BME280;29800;55.942;37.314;2022-10-04T03:12:57;98264.34;;;11.59;67.82
44138;BME280;29800;55.942;37.314;2022-10-04T03:15:23;98248.78;;;11.79;69.42
44138;BME280;29800;55.942;37.314;2022-10-04T03:17:49;98250.75;;;11.73;68.72
44138;BME280;29800;55.942;37.314;2022-10-04T03:20:16;98255.66;;;11.52;68.32
44138;BME280;29800;55.942;37.314;2022-10-04T03:22:50;98252.56;;;11.59;68.58
44138;BME280;29800;55.942;37.314;2022-10-04T03:25:24;98248.31;;;11.48;68.54
44138;BME280;29800;55.942;37.314;2022-10-04T03:27:58;98253.78;;;11.72;70.07
44138;BME280;29800;55.942;37.314;2022-10-04T03:30:27;98257.16;;;11.64;67.76
44138;BME280;29800;55.942;37.314;2022-10-04T03:32:53;98261.63;;;11.59;68.79
44138;BME280;29800;55.942;37.314;2022-10-04T03:35:35;98265.38;;;11.64;68.66
44138;BME280;29800;55.942;37.314;2022-10-04T03:38:07;98263.16;;;11.66;68.70
44138;BME280;29800;55.942;37.314;2022-10-04T03:40:35;98262.59;;;11.69;68.67
44138;BME280;29800;55.942;37.314;2022-10-04T03:43:03;98259.84;;;11.69;69.97
44138;BME280;29800;55.942;37.314;2022-10-04T03:45:31;98265.69;;;11.62;68.13
44138;BME280;29800;55.942;37.314;2022-10-04T03:48:07;98266.31;;;11.78;67.83
44138;BME280;29800;55.942;37.314;2022-10-04T03:50:44;98258.75;;;11.70;67.42
44138;BME280;29800;55.942;37.314;2022-10-04T03:53:23;98266.25;;;11.59;68.06
44138;BME280;29800;55.942;37.314;2022-10-04T03:55:53;98263.13;;;11.71;68.01
44138;BME280;29800;55.942;37.314;2022-10-04T03:58:19;98266.22;;;11.64;67.96
44138;BME280;29800;55.942;37.314;2022-10-04T04:01:03;98261.72;;;11.73;68.56
44138;BME280;29800;55.942;37.314;2022-10-04T04:03:40;98261.72;;;11.73;67.66
44138;BME280;29800;55.942;37.314;2022-10-04T04:06:14;98270.59;;;11.65;68.03
44138;BME280;29800;55.942;37.314;2022-10-04T04:08:45;98272.38;;;11.75;68.25
44138;BME280;29800;55.942;37.314;2022-10-04T04:11:22;98280.81;;;11.78;68.26
44138;BME280;29800;55.942;37.314;2022-10-04T04:16:25;98285.94;;;11.85;70.49
44138;BME280;29800;55.942;37.314;2022-10-04T04:18:54;98278.78;;;11.89;69.25
44138;BME280;29800;55.942;37.314;2022-10-04T04:21:24;98279.56;;;11.95;70.00
44138;BME280;29800;55.942;37.314;2022-10-04T04:26:34;98283.56;;;11.78;67.69
44138;BME280;29800;55.942;37.314;2022-10-04T04:29:10;98294.81;;;11.77;68.23
44138;BME280;29800;55.942;37.314;2022-10-04T04:34:18;98300.31;;;12.01;70.07
44138;BME280;29800;55.942;37.314;2022-10-04T04:36:45;98291.44;;;11.85;68.30
44138;BME280;29800;55.942;37.314;2022-10-04T04:39:22;98290.69;;;12.04;69.61
44138;BME280;29800;55.942;37.314;2022-10-04T04:42:14;98290.34;;;11.86;68.23
44138;BME280;29800;55.942;37.314;2022-10-04T04:44:52;98291.34;;;11.95;67.76
44138;BME280;29800;55.942;37.314;2022-10-04T04:47:32;98302.19;;;12.06;67.71
44138;BME280;29800;55.942;37.314;2022-10-04T04:50:12;98285.31;;;11.93;67.29
44138;BME280;29800;55.942;37.314;2022-10-04T04:52:42;98298.91;;;12.04;67.34
44138;BME280;29800;55.942;37.314;2022-10-04T04:55:19;98309.38;;;12.21;67.67
44138;BME280;29800;55.942;37.314;2022-10-04T04:57:49;98302.94;;;12.30;67.00
44138;BME280;29800;55.942;37.314;2022-10-04T05:00:20;98304.13;;;12.43;66.67
44138;BME280;29800;55.942;37.314;2022-10-04T05:02:53;98307.75;;;12.39;65.78
44138;BME280;29800;55.942;37.314;2022-10-04T05:05:24;98303.88;;;12.59;66.78
44138;BME280;29800;55.942;37.314;2022-10-04T05:11:20;98308.66;;;12.53;65.55
44138;BME280;29800;55.942;37.314;2022-10-04T05:16:00;98316.50;;;12.60;65.56
44138;BME280;29800;55.942;37.314;2022-10-04T05:18:30;98332.22;;;12.54;65.55
44138;BME280;29800;55.942;37.314;2022-10-04T05:21:19;98331.41;;;12.35;65.80
44138;BME280;29800;55.942;37.314;2022-10-04T05:23:47;98338.97;;;12.24;66.34
44138;BME280;29800;55.942;37.314;2022-10-04T05:26:26;98338.16;;;12.23;66.09
44138;BME280;29800;55.942;37.314;2022-10-04T05:28:55;98343.94;;;12.22;66.76
44138;BME280;29800;55.942;37.314;2022-10-04T05:31:31;98340.78;;;12.09;66.91
44138;BME280;29800;55.942;37.314;2022-10-04T05:33:59;98364.47;;;12.24;65.31
44138;BME280;29800;55.942;37.314;2022-10-04T05:36:46;98342.31;;;12.40;65.99
44138;BME280;29800;55.942;37.314;2022-10-04T05:39:30;98360.75;;;12.34;65.89
44138;BME280;29800;55.942;37.314;2022-10-04T05:42:20;98338.44;;;12.22;65.25
44138;BME280;29800;55.942;37.314;2022-10-04T05:44:50;98349.66;;;12.25;66.06
44138;BME280;29800;55.942;37.314;2022-10-04T05:47:18;98346.50;;;12.13;66.10
44138;BME280;29800;55.942;37.314;2022-10-04T05:49:51;98346.28;;;12.09;66.57
44138;BME280;29800;55.942;37.314;2022-10-04T05:52:30;98351.13;;;12.37;66.57
44138;BME280;29800;55.942;37.314;2022-10-04T05:55:27;98348.09;;;12.57;67.22
44138;BME280;29800;55.942;37.314;2022-10-04T06:06:48;98363.81;;;12.90;65.21
44138;BME280;29800;55.942;37.314;2022-10-04T06:12:11;98363.50;;;13.10;64.23
44138;BME280;29800;55.942;37.314;2022-10-04T06:17:56;98357.28;;;12.85;63.30
44138;BME280;29800;55.942;37.314;2022-10-04T06:21:12;98364.91;;;12.88;63.50
44138;BME280;29800;55.942;37.314;2022-10-04T06:23:15;98364.47;;;12.81;63.55
44138;BME280;29800;55.942;37.314;2022-10-04T06:26:05;98373.91;;;12.75;63.62
44138;BME280;29800;55.942;37.314;2022-10-04T06:28:40;98372.03;;;12.71;65.18
44138;BME280;29800;55.942;37.314;2022-10-04T06:51:17;98381.41;;;12.31;65.12
44138;BME280;29800;55.942;37.314;2022-10-04T06:54:16;98386.91;;;12.26;65.49
44138;BME280;29800;55.942;37.314;2022-10-04T07:02:42;98395.88;;;12.13;65.85
44138;BME280;29800;55.942;37.314;2022-10-04T07:07:49;98393.53;;;12.01;65.79
44138;BME280;29800;55.942;37.314;2022-10-04T07:11:24;98394.84;;;12.09;66.10
44138;BME280;29800;55.942;37.314;2022-10-04T07:13:36;98405.25;;;12.31;66.08
44138;BME280;29800;55.942;37.314;2022-10-04T07:16:26;98391.06;;;12.48;65.24
44138;BME280;29800;55.942;37.314;2022-10-04T07:21:42;98404.34;;;12.60;64.44
44138;BME280;29800;55.942;37.314;2022-10-04T07:24:33;98399.34;;;12.62;66.26
44138;BME280;29800;55.942;37.314;2022-10-04T07:27:07;98407.22;;;12.68;64.24
44138;BME280;29800;55.942;37.314;2022-10-04T07:29:38;98400.16;;;12.62;64.73
44138;BME280;29800;55.942;37.314;2022-10-04T07:32:42;98399.97;;;12.78;65.23
44138;BME280;29800;55.942;37.314;2022-10-04T07:43:38;98403.31;;;12.94;63.92
44138;BME280;29800;55.942;37.314;2022-10-04T07:48:47;98405.59;;;13.05;62.46
44138;BME280;29800;55.942;37.314;2022-10-04T07:51:35;98398.44;;;13.04;63.23
44138;BME280;29800;55.942;37.314;2022-10-04T07:54:16;98407.16;;;12.93;63.37
44138;BME280;29800;55.942;37.314;2022-10-04T07:56:59;98413.44;;;12.93;62.86
44138;BME280;29800;55.942;37.314;2022-10-04T08:02:28;98403.66;;;12.87;62.83
44138;BME280;29800;55.942;37.314;2022-10-04T08:05:21;98398.44;;;13.04;62.40
44138;BME280;29800;55.942;37.314;2022-10-04T08:13:38;98398.44;;;13.70;60.52
44138;BME280;29800;55.942;37.314;2022-10-04T08:30:11;98384.56;;;14.59;60.79
44138;BME280;29800;55.942;37.314;2022-10-04T08:32:47;98394.69;;;14.63;57.92
44138;BME280;29800;55.942;37.314;2022-10-04T08:35:30;98397.03;;;14.42;57.44
44138;BME280;29800;55.942;37.314;2022-10-04T08:38:25;98389.00;;;14.32;57.98
44138;BME280;29800;55.942;37.314;2022-10-04T08:52:45;98407.66;;;14.07;57.65
44138;BME280;29800;55.942;37.314;2022-10-04T09:21:10;98378.44;;;14.98;55.69
44138;BME280;29800;55.942;37.314;2022-10-04T09:23:55;98381.44;;;14.88;54.91
44138;BME280;29800;55.942;37.314;2022-10-04T09:26:46;98380.69;;;14.74;57.52
44138;BME280;29800;55.942;37.314;2022-10-04T09:32:15;98376.31;;;14.95;54.96
44138;BME280;29800;55.942;37.314;2022-10-04T09:49:15;98361.72;;;14.72;53.69
44138;BME280;29800;55.942;37.314;2022-10-04T09:54:40;98359.09;;;14.39;55.18
44138;BME280;29800;55.942;37.314;2022-10-04T10:00:00;98363.69;;;14.44;55.02
44138;BME280;29800;55.942;37.314;2022-10-04T10:12:12;98362.19;;;14.24;55.15
44138;BME280;29800;55.942;37.314;2022-10-04T10:15:20;98374.25;;;14.14;55.63
44138;BME280;29800;55.942;37.314;2022-10-04T10:17:58;98380.13;;;14.21;58.45
44138;BME280;29800;55.942;37.314;2022-10-04T10:20:36;98381.56;;;14.05;57.58
44138;BME280;29800;55.942;37.314;2022-10-04T10:23:31;98393.19;;;14.02;58.93
44138;BME280;29800;55.942;37.314;2022-10-04T10:37:38;98468.84;;;13.00;67.38
44138;BME280;29800;55.942;37.314;2022-10-04T10:45:59;98476.28;;;12.32;72.46
44138;BME280;29800;55.942;37.314;2022-10-04T10:54:13;98522.91;;;11.74;71.29
44138;BME280;29800;55.942;37.314;2022-10-04T10:57:02;98539.56;;;11.48;72.04
44138;BME280;29800;55.942;37.314;2022-10-04T11:17:04;98568.28;;;10.51;75.29
44138;BME280;29800;55.942;37.314;2022-10-04T11:20:00;98562.81;;;10.51;75.28
44138;BME280;29800;55.942;37.314;2022-10-04T11:23:13;98558.97;;;10.47;75.73
44138;BME280;29800;55.942;37.314;2022-10-04T11:44:02;98572.69;;;10.26;76.82
44138;BME280;29800;55.942;37.314;2022-10-04T11:49:52;98574.03;;;10.29;76.97
44138;BME280;29800;55.942;37.314;2022-10-04T11:55:06;98576.22;;;10.37;75.57
44138;BME280;29800;55.942;37.314;2022-10-04T12:03:58;98601.97;;;10.05;75.32
44138;BME280;29800;55.942;37.314;2022-10-04T12:09:33;98600.31;;;9.94;75.26
44138;BME280;29800;55.942;37.314;2022-10-04T12:23:56;98620.56;;;10.08;75.20
44138;BME280;29800;55.942;37.314;2022-10-04T12:35:11;98625.41;;;10.68;72.67
44138;BME280;29800;55.942;37.314;2022-10-04T12:40:45;98632.44;;;10.90;71.69
44138;BME280;29800;55.942;37.314;2022-10-04T12:46:24;98643.34;;;11.10;71.15
44138;BME280;29800;55.942;37.314;2022-10-04T12:52:19;98642.13;;;11.32;71.25
44138;BME280;29800;55.942;37.314;2022-10-04T12:57:58;98640.38;;;11.51;70.23
44138;BME280;29800;55.942;37.314;2022-10-04T13:00:33;98642.47;;;11.70;70.19
44138;BME280;29800;55.942;37.314;2022-10-04T13:05:58;98649.41;;;11.52;68.23
44138;BME280;29800;55.942;37.314;2022-10-04T13:14:29;98658.19;;;11.49;68.24
44138;BME280;29800;55.942;37.314;2022-10-04T13:31:20;98675.97;;;11.56;67.51
44138;BME280;29800;55.942;37.314;2022-10-04T13:34:05;98679.28;;;11.53;66.94
44138;BME280;29800;55.942;37.314;2022-10-04T13:50:45;98686.56;;;11.73;67.00
44138;BME280;29800;55.942;37.314;2022-10-04T13:53:26;98678.63;;;11.72;66.97
44138;BME280;29800;55.942;37.314;2022-10-04T14:08:16;98687.06;;;11.86;66.57
44138;BME280;29800;55.942;37.314;2022-10-04T14:11:18;98676.91;;;11.86;66.57
44138;BME280;29800;55.942;37.314;2022-10-04T14:14:15;98686.50;;;11.84;66.40
44138;BME280;29800;55.942;37.314;2022-10-04T14:35:08;98684.34;;;11.81;65.59
44138;BME280;29800;55.942;37.314;2022-10-04T14:42:04;98686.25;;;11.80;65.04
44138;BME280;29800;55.942;37.314;2022-10-04T14:50:29;98696.38;;;11.85;65.30
44138;BME280;29800;55.942;37.314;2022-10-04T14:53:21;98693.63;;;11.85;65.32
44138;BME280;29800;55.942;37.314;2022-10-04T15:02:09;98697.47;;;11.84;65.17
44138;BME280;29800;55.942;37.314;2022-10-04T15:07:30;98706.53;;;11.84;64.97
44138;BME280;29800;55.942;37.314;2022-10-04T15:10:27;98710.34;;;11.83;64.50
44138;BME280;29800;55.942;37.314;2022-10-04T15:13:05;98707.09;;;11.81;64.22
44138;BME280;29800;55.942;37.314;2022-10-04T15:19:10;98715.59;;;11.80;63.79
44138;BME280;29800;55.942;37.314;2022-10-04T15:33:24;98717.47;;;11.89;63.49
44138;BME280;29800;55.942;37.314;2022-10-04T15:36:13;98715.38;;;11.71;62.79
44138;BME280;29800;55.942;37.314;2022-10-04T15:38:55;98720.00;;;11.75;63.02
44138;BME280;29800;55.942;37.314;2022-10-04T15:42:08;98722.13;;;11.89;63.56
44138;BME280;29800;55.942;37.314;2022-10-04T15:45:03;98724.06;;;11.83;63.01
44138;BME280;29800;55.942;37.314;2022-10-04T15:56:55;98729.41;;;11.64;62.43
44138;BME280;29800;55.942;37.314;2022-10-04T16:08:49;98728.88;;;11.52;62.15
44138;BME280;29800;55.942;37.314;2022-10-04T16:11:37;98734.88;;;11.59;62.42
44138;BME280;29800;55.942;37.314;2022-10-04T16:14:22;98724.78;;;11.54;62.25
44138;BME280;29800;55.942;37.314;2022-10-04T16:17:27;98728.03;;;11.62;62.01
44138;BME280;29800;55.942;37.314;2022-10-04T16:20:35;98725.53;;;11.65;62.86
44138;BME280;29800;55.942;37.314;2022-10-04T16:23:37;98732.38;;;11.68;62.75
44138;BME280;29800;55.942;37.314;2022-10-04T16:31:57;98738.44;;;11.65;62.65
44138;BME280;29800;55.942;37.314;2022-10-04T16:37:51;98736.19;;;11.72;63.65
44138;BME280;29800;55.942;37.314;2022-10-04T16:48:46;98734.50;;;11.81;62.81
44138;BME280;29800;55.942;37.314;2022-10-04T16:51:22;98728.22;;;11.75;62.51
44138;BME280;29800;55.942;37.314;2022-10-04T17:13:31;98725.16;;;11.87;62.16
44138;BME280;29800;55.942;37.314;2022-10-04T17:19:04;98732.31;;;11.78;62.43
44138;BME280;29800;55.942;37.314;2022-10-04T17:24:51;98736.69;;;11.84;62.23
44138;BME280;29800;55.942;37.314;2022-10-04T17:30:15;98738.88;;;11.82;62.63
44138;BME280;29800;55.942;37.314;2022-10-04T17:33:05;98737.81;;;11.78;62.08
44138;BME280;29800;55.942;37.314;2022-10-04T17:41:18;98740.53;;;11.78;62.81
44138;BME280;29800;55.942;37.314;2022-10-04T17:49:03;98744.06;;;11.94;61.94
44138;BME280;29800;55.942;37.314;2022-10-04T17:51:54;98740.59;;;11.68;62.15
44138;BME280;29800;55.942;37.314;2022-10-04T17:54:52;98728.53;;;11.69;62.77
44138;BME280;29800;55.942;37.314;2022-10-04T18:00:24;98735.41;;;11.66;62.16
44138;BME280;29800;55.942;37.314;2022-10-04T18:03:08;98737.91;;;11.63;62.08
44138;BME280;29800;55.942;37.314;2022-10-04T18:05:52;98743.38;;;11.63;62.58
44138;BME280;29800;55.942;37.314;2022-10-04T18:11:17;98735.69;;;11.65;62.29
44138;BME280;29800;55.942;37.314;2022-10-04T18:13:58;98724.47;;;11.61;61.89
44138;BME280;29800;55.942;37.314;2022-10-04T18:22:19;98740.38;;;11.54;61.93
44138;BME280;29800;55.942;37.314;2022-10-04T18:24:48;98742.34;;;11.48;61.65
44138;BME280;29800;55.942;37.314;2022-10-04T18:27:28;98753.28;;;11.48;61.58
44138;BME280;29800;55.942;37.314;2022-10-04T18:32:31;98756.31;;;11.47;62.48
44138;BME280;29800;55.942;37.314;2022-10-04T18:35:01;98748.94;;;11.42;61.91
44138;BME280;29800;55.942;37.314;2022-10-04T18:37:35;98746.47;;;11.40;62.00
44138;BME280;29800;55.942;37.314;2022-10-04T18:40:30;98751.38;;;11.49;61.80
44138;BME280;29800;55.942;37.314;2022-10-04T18:42:58;98754.16;;;11.38;62.11
44138;BME280;29800;55.942;37.314;2022-10-04T18:45:32;98746.22;;;11.37;61.97
44138;BME280;29800;55.942;37.314;2022-10-04T18:48:01;98757.44;;;11.35;62.40
44138;BME280;29800;55.942;37.314;2022-10-04T18:50:34;98760.19;;;11.35;61.99
44138;BME280;29800;55.942;37.314;2022-10-04T18:56:07;98760.78;;;11.22;62.43
44138;BME280;29800;55.942;37.314;2022-10-04T19:04:44;98774.75;;;11.20;62.74
44138;BME280;29800;55.942;37.314;2022-10-04T19:07:14;98771.75;;;11.12;62.35
44138;BME280;29800;55.942;37.314;2022-10-04T19:15:24;98769.28;;;11.15;62.24
44138;BME280;29800;55.942;37.314;2022-10-04T19:23:33;98768.75;;;11.18;62.89
44138;BME280;29800;55.942;37.314;2022-10-04T19:26:17;98770.34;;;11.19;62.65
44138;BME280;29800;55.942;37.314;2022-10-04T19:28:56;98775.31;;;11.17;62.51
44138;BME280;29800;55.942;37.314;2022-10-04T19:31:34;98775.31;;;11.12;62.62
44138;BME280;29800;55.942;37.314;2022-10-04T19:34:08;98768.75;;;11.08;62.24
44138;BME280;29800;55.942;37.314;2022-10-04T19:37:00;98765.72;;;11.10;62.24
44138;BME280;29800;55.942;37.314;2022-10-04T19:47:46;98765.22;;;10.82;62.48
44138;BME280;29800;55.942;37.314;2022-10-04T19:50:34;98770.16;;;10.85;63.05
44138;BME280;29800;55.942;37.314;2022-10-04T19:55:57;98772.59;;;10.87;62.96
44138;BME280;29800;55.942;37.314;2022-10-04T19:58:40;98772.59;;;10.92;63.58
44138;BME280;29800;55.942;37.314;2022-10-04T20:01:13;98762.19;;;10.89;63.25
44138;BME280;29800;55.942;37.314;2022-10-04T20:03:41;98769.59;;;10.83;63.30
44138;BME280;29800;55.942;37.314;2022-10-04T20:06:08;98768.78;;;10.82;63.29
44138;BME280;29800;55.942;37.314;2022-10-04T20:08:54;98764.94;;;10.94;63.63
44138;BME280;29800;55.942;37.314;2022-10-04T20:11:45;98769.31;;;10.95;63.73
44138;BME280;29800;55.942;37.314;2022-10-04T20:19:37;98770.94;;;11.01;63.86
44138;BME280;29800;55.942;37.314;2022-10-04T20:27:03;98785.19;;;10.93;64.04
44138;BME280;29800;55.942;37.314;2022-10-04T20:32:04;98779.44;;;10.94;63.84
44138;BME280;29800;55.942;37.314;2022-10-04T20:34:46;98778.06;;;10.92;63.98
44138;BME280;29800;55.942;37.314;2022-10-04T20:37:14;98776.44;;;10.91;64.17
44138;BME280;29800;55.942;37.314;2022-10-04T20:42:33;98780.25;;;11.00;64.56
44138;BME280;29800;55.942;37.314;2022-10-04T20:47:38;98767.66;;;10.89;64.34
44138;BME280;29800;55.942;37.314;2022-10-04T20:50:17;98767.69;;;10.99;64.27
44138;BME280;29800;55.942;37.314;2022-10-04T20:52:47;98769.84;;;10.97;64.27
44138;BME280;29800;55.942;37.314;2022-10-04T20:55:35;98771.50;;;10.98;64.36
44138;BME280;29800;55.942;37.314;2022-10-04T20:58:04;98770.13;;;11.00;64.33
44138;BME280;29800;55.942;37.314;2022-10-04T21:00:53;98772.03;;;11.05;64.42
44138;BME280;29800;55.942;37.314;2022-10-04T21:03:20;98765.75;;;10.99;64.02
44138;BME280;29800;55.942;37.314;2022-10-04T21:06:05;98773.66;;;11.11;64.22
44138;BME280;29800;55.942;37.314;2022-10-04T21:08:33;98766.56;;;11.00;64.05
44138;BME280;29800;55.942;37.314;2022-10-04T21:11:14;98761.66;;;11.02;64.30
44138;BME280;29800;55.942;37.314;2022-10-04T21:13:59;98769.00;;;11.07;64.28
44138;BME280;29800;55.942;37.314;2022-10-04T21:22:03;98762.72;;;11.06;64.43
44138;BME280;29800;55.942;37.314;2022-10-04T21:24:39;98753.44;;;11.07;64.29
44138;BME280;29800;55.942;37.314;2022-10-04T21:27:11;98766.84;;;10.98;64.30
44138;BME280;29800;55.942;37.314;2022-10-04T21:29:38;98753.44;;;10.87;63.83
44138;BME280;29800;55.942;37.314;2022-10-04T21:32:04;98751.25;;;10.89;64.45
44138;BME280;29800;55.942;37.314;2022-10-04T21:34:30;98755.09;;;10.93;64.38
44138;BME280;29800;55.942;37.314;2022-10-04T21:36:56;98754.81;;;10.89;64.15
44138;BME280;29800;55.942;37.314;2022-10-04T21:39:26;98757.28;;;10.96;64.13
44138;BME280;29800;55.942;37.314;2022-10-04T21:41:52;98758.34;;;10.95;64.12
44138;BME280;29800;55.942;37.314;2022-10-04T21:44:18;98754.53;;;10.96;63.69
44138;BME280;29800;55.942;37.314;2022-10-04T21:46:44;98760.00;;;10.96;63.69
44138;BME280;29800;55.942;37.314;2022-10-04T21:49:10;98756.72;;;10.99;63.93
44138;BME280;29800;55.942;37.314;2022-10-04T21:51:36;98760.00;;;11.01;64.18
44138;BME280;29800;55.942;37.314;2022-10-04T21:54:05;98764.66;;;11.06;64.08
44138;BME280;29800;55.942;37.314;2022-10-04T21:56:31;98757.25;;;11.06;63.77
44138;BME280;29800;55.942;37.314;2022-10-04T21:58:57;98756.69;;;11.09;63.97
44138;BME280;29800;55.942;37.314;2022-10-04T22:01:24;98755.59;;;11.05;63.66
44138;BME280;29800;55.942;37.314;2022-10-04T22:03:50;98758.06;;;11.01;63.42
44138;BME280;29800;55.942;37.314;2022-10-04T22:06:17;98764.66;;;11.00;63.67
44138;BME280;29800;55.942;37.314;2022-10-04T22:08:44;98762.19;;;11.04;63.61
44138;BME280;29800;55.942;37.314;2022-10-04T22:11:10;98760.00;;;11.01;63.01
44138;BME280;29800;55.942;37.314;2022-10-04T22:13:36;98755.59;;;11.05;63.79
44138;BME280;29800;55.942;37.314;2022-10-04T22:16:03;98757.53;;;11.04;63.48
44138;BME280;29800;55.942;37.314;2022-10-04T22:18:31;98756.72;;;11.04;63.68
44138;BME280;29800;55.942;37.314;2022-10-04T22:20:58;98754.50;;;11.06;63.45
44138;BME280;29800;55.942;37.314;2022-10-04T22:23:26;98757.50;;;11.10;63.93
44138;BME280;29800;55.942;37.314;2022-10-04T22:25:54;98753.41;;;11.12;63.97
44138;BME280;29800;55.942;37.314;2022-10-04T22:28:24;98751.75;;;11.16;64.34
44138;BME280;29800;55.942;37.314;2022-10-04T22:30:51;98753.38;;;11.17;64.23
44138;BME280;29800;55.942;37.314;2022-10-04T22:33:34;98757.75;;;11.24;63.46
44138;BME280;29800;55.942;37.314;2022-10-04T22:36:20;98760.22;;;11.25;63.58
44138;BME280;29800;55.942;37.314;2022-10-04T22:38:50;98756.13;;;11.17;63.67
44138;BME280;29800;55.942;37.314;2022-10-04T22:41:17;98756.94;;;11.18;63.66
44138;BME280;29800;55.942;37.314;2022-10-04T22:43:45;98756.66;;;11.19;63.90
44138;BME280;29800;55.942;37.314;2022-10-04T22:46:16;98759.13;;;11.21;63.64
44138;BME280;29800;55.942;37.314;2022-10-04T22:48:45;98764.06;;;11.24;64.05